Time;durP1;ratioP1;P1;durP2;ratioP2;P2;SDS_P1;SDS_P2;PMS_P1;PMS_P2;Temp;Humidity;BMP_temperature;BMP_pressure;BME280_temperature;BME280_humidity;BME280_pressure;Samples;Min_cycle;Max_cycle;Signal;HPM_P1;HPM_P2
2022/07/25 00:01:31;;;;;;;14.57;12.70;;;;;;;22.95;100.00;96172.75;5051067;28;20202;-77
2022/07/25 00:03:58;;;;;;;14.02;12.73;;;;;;;22.93;100.00;96177.75;5052089;28;20212;-76
2022/07/25 00:06:25;;;;;;;13.60;12.23;;;;;;;22.87;100.00;96181.78;5061589;28;20234;-77
2022/07/25 00:08:52;;;;;;;15.00;12.93;;;;;;;22.81;100.00;96166.47;5056533;28;20205;-77
2022/07/25 00:11:19;;;;;;;15.77;13.48;;;;;;;22.72;100.00;96168.31;5055904;28;20228;-76
2022/07/25 00:13:46;;;;;;;15.27;13.15;;;;;;;22.71;100.00;96169.47;5051837;28;20205;-77
2022/07/25 00:16:14;;;;;;;15.52;13.15;;;;;;;22.69;100.00;96160.72;5051252;28;20263;-77
2022/07/25 00:18:42;;;;;;;14.25;12.75;;;;;;;22.58;100.00;96154.63;5055951;28;20290;-76
2022/07/25 00:21:09;;;;;;;17.05;13.82;;;;;;;22.40;100.00;96150.91;5060311;28;20201;-77
2022/07/25 00:23:36;;;;;;;14.60;13.20;;;;;;;22.29;100.00;96146.75;5059169;28;20209;-77
2022/07/25 00:26:03;;;;;;;19.73;13.45;;;;;;;22.25;100.00;96141.06;5057949;28;20236;-77
2022/07/25 00:28:30;;;;;;;14.93;13.40;;;;;;;22.13;100.00;96137.22;5058453;28;20297;-77
2022/07/25 00:30:57;;;;;;;14.70;13.23;;;;;;;22.07;100.00;96128.28;5057240;28;20244;-76
2022/07/25 00:33:24;;;;;;;15.55;13.90;;;;;;;22.07;100.00;96132.97;5055592;28;20206;-76
2022/07/25 00:35:53;;;;;;;14.95;13.43;;;;;;;22.12;100.00;96125.41;5062776;28;20201;-76
2022/07/25 00:38:20;;;;;;;16.13;13.68;;;;;;;22.16;100.00;96131.94;5056828;28;20206;-77
2022/07/25 00:40:47;;;;;;;16.73;14.27;;;;;;;22.20;100.00;96126.63;5055758;28;20202;-76
2022/07/25 00:43:14;;;;;;;15.40;13.80;;;;;;;22.18;100.00;96128.88;5049659;28;20206;-76
2022/07/25 00:45:41;;;;;;;14.80;13.27;;;;;;;22.06;100.00;96123.91;5058849;28;20205;-76
2022/07/25 00:48:08;;;;;;;14.88;13.27;;;;;;;22.02;100.00;96124.84;5056039;28;20204;-77
2022/07/25 00:50:36;;;;;;;14.93;13.15;;;;;;;22.03;100.00;96126.47;5062355;28;20201;-77
2022/07/25 00:53:04;;;;;;;15.13;13.48;;;;;;;22.02;100.00;96116.59;5053912;28;20236;-77
2022/07/25 00:55:32;;;;;;;19.40;13.75;;;;;;;21.99;100.00;96115.25;5047421;28;20221;-77
2022/07/25 00:57:59;;;;;;;14.32;12.82;;;;;;;22.03;100.00;96116.25;5054584;28;20202;-77
2022/07/25 01:00:27;;;;;;;19.42;13.88;;;;;;;22.02;100.00;96109.16;5048081;28;20221;-77
2022/07/25 01:02:54;;;;;;;14.77;13.32;;;;;;;22.07;100.00;96114.53;5051924;28;20209;-76
2022/07/25 01:05:21;;;;;;;16.67;13.30;;;;;;;22.03;100.00;96116.25;5056276;28;20210;-77
2022/07/25 01:07:48;;;;;;;18.88;14.13;;;;;;;22.04;100.00;96115.13;5050082;28;20216;-77
2022/07/25 01:10:16;;;;;;;14.93;12.65;;;;;;;22.06;100.00;96110.16;5052114;28;20295;-77
2022/07/25 01:12:45;;;;;;;14.32;12.93;;;;;;;22.10;100.00;96104.84;5049335;28;20225;-76
2022/07/25 01:15:12;;;;;;;14.98;13.18;;;;;;;22.12;100.00;96097.91;5052734;28;20234;-77
2022/07/25 01:17:39;;;;;;;14.30;12.90;;;;;;;22.21;100.00;96104.31;5054941;28;20194;-77
2022/07/25 01:20:13;;;;;;;16.23;12.82;;;;;;;22.23;100.00;96109.50;5051945;28;20210;-77
2022/07/25 01:22:40;;;;;;;13.88;12.48;;;;;;;22.26;100.00;96101.44;5055832;28;20210;-76
2022/07/25 01:25:07;;;;;;;14.27;11.90;;;;;;;22.26;100.00;96101.44;5061527;28;20215;-76
2022/07/25 01:27:34;;;;;;;15.73;12.73;;;;;;;22.26;100.00;96104.19;5060785;28;20197;-77
2022/07/25 01:30:03;;;;;;;16.45;12.48;;;;;;;22.32;100.00;96110.38;5054554;28;20210;-76
2022/07/25 01:32:30;;;;;;;16.50;12.00;;;;;;;22.31;100.00;96107.94;5049493;28;20245;-77
2022/07/25 01:34:57;;;;;;;14.80;13.23;;;;;;;22.28;100.00;96120.41;5052718;28;20284;-77
2022/07/25 01:37:25;;;;;;;14.55;12.90;;;;;;;22.22;100.00;96113.38;5055857;28;20209;-76
2022/07/25 01:39:52;;;;;;;14.68;12.95;;;;;;;22.18;100.00;96117.88;5060060;28;20214;-77
2022/07/25 01:42:19;;;;;;;16.65;13.88;;;;;;;22.13;100.00;96117.97;5051599;28;20204;-77
2022/07/25 01:44:47;;;;;;;14.00;12.40;;;;;;;22.12;100.00;96119.09;5057272;28;20210;-77
2022/07/25 01:47:14;;;;;;;14.07;12.68;;;;;;;22.14;100.00;96122.34;5054322;28;20206;-76
2022/07/25 01:49:41;;;;;;;14.40;12.80;;;;;;;22.12;100.00;96122.66;5049355;28;20285;-76
2022/07/25 01:52:08;;;;;;;15.05;13.45;;;;;;;22.10;100.00;96115.84;5048521;28;20233;-78
2022/07/25 01:54:36;;;;;;;14.32;12.88;;;;;;;22.12;100.00;96119.09;5053442;28;20293;-78
2022/07/25 01:57:04;;;;;;;15.98;13.27;;;;;;;22.09;100.00;96125.22;5048836;28;20236;-78
2022/07/25 01:59:32;;;;;;;15.80;13.10;;;;;;;22.10;100.00;96121.34;5046173;28;20210;-78
2022/07/25 02:01:59;;;;;;;15.05;13.15;;;;;;;22.02;100.00;96122.09;5048543;28;20212;-78
2022/07/25 02:04:26;;;;;;;15.43;13.82;;;;;;;21.92;100.00;96119.53;5050767;28;20202;-78
2022/07/25 02:06:53;;;;;;;15.20;13.38;;;;;;;21.88;100.00;96120.13;5052894;28;20210;-77
2022/07/25 02:09:20;;;;;;;14.75;12.50;;;;;;;21.80;100.00;96117.28;5058240;28;20205;-78
2022/07/25 02:11:48;;;;;;;15.85;13.50;;;;;;;21.80;100.00;96117.28;5056994;28;20221;-78
2022/07/25 02:14:15;;;;;;;14.50;12.98;;;;;;;21.85;100.00;96120.75;5046836;28;20245;-78
2022/07/25 02:16:43;;;;;;;14.63;12.50;;;;;;;21.79;100.00;96113.72;5070520;28;20755;-78
2022/07/25 02:19:10;;;;;;;14.15;12.65;;;;;;;21.74;100.00;96111.09;5052895;28;20213;-78
2022/07/25 02:21:37;;;;;;;13.63;12.30;;;;;;;21.73;100.00;96111.41;5050749;28;20202;-78
2022/07/25 02:24:06;;;;;;;13.85;12.45;;;;;;;21.72;100.00;96113.31;5051359;28;20295;-78
2022/07/25 02:26:33;;;;;;;15.43;13.77;;;;;;;21.70;100.00;96117.50;5052393;28;20204;-78
2022/07/25 02:29:01;;;;;;;15.50;13.60;;;;;;;21.63;100.00;96106.91;5048464;28;20317;-78
2022/07/25 02:31:28;;;;;;;16.15;13.30;;;;;;;21.59;100.00;96107.84;5050200;28;20211;-78
2022/07/25 02:33:55;;;;;;;14.27;12.88;;;;;;;21.50;100.00;96108.56;5045626;28;20221;-78
2022/07/25 02:36:22;;;;;;;17.65;13.98;;;;;;;21.44;100.00;96101.53;5055302;28;20276;-78
2022/07/25 02:38:49;;;;;;;16.33;13.73;;;;;;;21.47;100.00;96103.69;5049122;28;20339;-78
2022/07/25 02:41:16;;;;;;;16.92;14.18;;;;;;;21.40;100.00;96102.47;5048295;28;20207;-78
2022/07/25 02:43:43;;;;;;;14.52;13.02;;;;;;;21.43;100.00;96097.19;5057816;28;20209;-78
2022/07/25 02:46:12;;;;;;;14.73;13.05;;;;;;;21.39;100.00;96098.06;5048749;28;20213;-78
2022/07/25 02:48:39;;;;;;;13.70;12.30;;;;;;;21.42;100.00;96102.97;5052280;28;20290;-78
2022/07/25 02:51:06;;;;;;;13.98;12.57;;;;;;;21.47;100.00;96091.88;5058397;28;20198;-78
2022/07/25 02:53:33;;;;;;;15.13;13.30;;;;;;;21.43;100.00;96093.63;5052953;28;20225;-78
2022/07/25 02:56:00;;;;;;;17.00;13.63;;;;;;;21.31;100.00;96082.31;5048698;28;20230;-78
2022/07/25 02:58:27;;;;;;;14.10;12.73;;;;;;;21.26;100.00;96080.50;5053420;28;20202;-78
2022/07/25 03:00:54;;;;;;;14.88;12.73;;;;;;;21.25;100.00;96078.88;5049089;28;20225;-78
2022/07/25 03:03:23;;;;;;;14.65;13.15;;;;;;;21.29;100.00;96076.31;5054788;28;20201;-78
2022/07/25 03:05:50;;;;;;;14.15;12.75;;;;;;;21.26;100.00;96072.25;5055939;28;20201;-78
2022/07/25 03:08:17;;;;;;;14.52;13.13;;;;;;;21.23;100.00;96074.78;5057435;28;20238;-78
2022/07/25 03:10:44;;;;;;;14.52;13.07;;;;;;;21.20;100.00;96072.63;5056880;28;20228;-78
2022/07/25 03:13:11;;;;;;;15.15;13.23;;;;;;;21.19;100.00;96065.50;5048989;28;20222;-78
2022/07/25 03:15:38;;;;;;;15.48;13.38;;;;;;;21.25;100.00;96067.06;5060250;28;20235;-78
2022/07/25 03:18:05;;;;;;;15.68;13.23;;;;;;;21.25;100.00;96067.06;5053372;28;20240;-78
2022/07/25 03:20:34;;;;;;;14.02;12.65;;;;;;;21.26;100.00;96068.69;5058242;28;20198;-78
2022/07/25 03:23:01;;;;;;;14.55;13.00;;;;;;;21.29;100.00;96068.88;5053006;28;20256;-78
2022/07/25 03:25:28;;;;;;;14.27;12.77;;;;;;;21.26;100.00;96071.44;5055235;28;20203;-78
2022/07/25 03:27:56;;;;;;;14.40;12.90;;;;;;;21.17;100.00;96060.34;5048882;28;20207;-78
2022/07/25 03:30:23;;;;;;;15.30;13.80;;;;;;;21.07;100.00;96061.31;5053724;28;20206;-78
2022/07/25 03:32:50;;;;;;;16.98;13.40;;;;;;;21.05;100.00;96060.00;5049016;28;20218;-78
2022/07/25 03:35:17;;;;;;;15.32;13.57;;;;;;;21.03;100.00;96054.81;5052690;28;20201;-78
2022/07/25 03:37:46;;;;;;;13.82;12.43;;;;;;;21.02;100.00;96050.44;5051590;28;20217;-78
2022/07/25 03:40:14;;;;;;;14.75;12.95;;;;;;;21.03;100.00;96043.00;5060613;28;20608;-78
2022/07/25 03:42:41;;;;;;;14.88;13.35;;;;;;;21.10;100.00;96048.91;5053102;28;20290;-78
2022/07/25 03:45:09;;;;;;;16.63;13.52;;;;;;;21.19;100.00;96046.28;5064469;28;20213;-78
2022/07/25 03:47:37;;;;;;;14.60;12.63;;;;;;;21.19;100.00;96052.59;5060664;28;20209;-78
2022/07/25 03:50:04;;;;;;;14.82;13.32;;;;;;;21.06;100.00;96048.72;5053100;28;20209;-78
2022/07/25 03:52:32;;;;;;;15.20;13.55;;;;;;;20.98;100.00;96046.69;5052862;28;20275;-78
2022/07/25 03:55:01;;;;;;;15.55;13.90;;;;;;;21.03;100.00;96049.31;5061005;28;20219;-78
2022/07/25 03:57:28;;;;;;;14.35;12.85;;;;;;;21.04;100.00;96045.44;5052857;28;20218;-78
2022/07/25 03:59:55;;;;;;;17.27;13.15;;;;;;;21.08;100.00;96049.22;5052167;28;20202;-78
2022/07/25 04:02:23;;;;;;;14.65;13.15;;;;;;;21.12;100.00;96057.66;5056075;28;20210;-78
2022/07/25 04:04:50;;;;;;;13.82;12.50;;;;;;;21.18;100.00;96055.69;5051426;28;20398;-78
2022/07/25 04:07:18;;;;;;;15.05;13.55;;;;;;;21.09;100.00;96052.78;5056121;28;20210;-78
2022/07/25 04:09:45;;;;;;;15.13;13.52;;;;;;;20.95;100.00;96051.94;5062047;28;20197;-78
2022/07/25 04:12:13;;;;;;;17.02;14.02;;;;;;;20.89;100.00;96058.66;5062333;28;20205;-78
2022/07/25 04:14:40;;;;;;;16.67;13.32;;;;;;;20.92;100.00;96058.06;5056189;28;20226;-78
2022/07/25 04:17:08;;;;;;;14.40;13.00;;;;;;;20.86;100.00;96073.78;5051758;28;20264;-78
2022/07/25 04:19:35;;;;;;;15.48;13.88;;;;;;;20.86;100.00;96062.81;5059228;28;20347;-78
2022/07/25 04:22:02;;;;;;;14.30;12.80;;;;;;;20.93;100.00;96065.16;5050885;28;20317;-78
2022/07/25 04:24:29;;;;;;;14.27;12.77;;;;;;;20.96;100.00;96065.38;5058513;28;20272;-77
2022/07/25 04:26:56;;;;;;;14.35;12.85;;;;;;;20.93;100.00;96060.47;5052035;28;20218;-77
2022/07/25 04:29:24;;;;;;;16.48;13.73;;;;;;;20.85;100.00;96055.69;5054865;28;20209;-78
2022/07/25 04:31:51;;;;;;;14.77;13.27;;;;;;;20.83;100.00;96057.13;5051629;28;20208;-78
2022/07/25 04:34:19;;;;;;;14.90;13.30;;;;;;;20.76;100.00;96060.25;5052251;28;20233;-78
2022/07/25 04:36:46;;;;;;;16.23;13.73;;;;;;;20.75;100.00;96061.38;5059081;28;20216;-78
2022/07/25 04:39:13;;;;;;;14.65;13.18;;;;;;;20.76;100.00;96065.72;5051267;28;20206;-77
2022/07/25 04:41:40;;;;;;;15.13;13.55;;;;;;;20.74;100.00;96062.50;5052752;28;20198;-77
2022/07/25 04:44:07;;;;;;;15.70;14.20;;;;;;;20.78;100.00;96067.06;5051435;28;20294;-77
2022/07/25 04:46:36;;;;;;;15.45;13.85;;;;;;;20.83;100.00;96065.38;5056754;28;20252;-77
2022/07/25 04:49:03;;;;;;;15.75;14.10;;;;;;;20.77;100.00;96051.72;5058808;28;20204;-77
2022/07/25 04:51:30;;;;;;;15.20;13.60;;;;;;;20.83;100.00;96057.94;5056363;28;20201;-77
2022/07/25 04:53:57;;;;;;;15.07;13.32;;;;;;;20.86;100.00;96056.50;5055086;28;20229;-78
2022/07/25 04:56:24;;;;;;;15.63;14.05;;;;;;;20.81;100.00;96051.94;5052834;28;20329;-77
2022/07/25 04:58:51;;;;;;;15.48;13.40;;;;;;;20.87;100.00;96056.22;5060371;28;20281;-77
2022/07/25 05:01:19;;;;;;;15.30;13.77;;;;;;;20.92;100.00;96058.06;5053865;28;20213;-77
2022/07/25 05:03:47;;;;;;;15.10;13.60;;;;;;;20.90;100.00;96050.13;5063323;28;20209;-77
2022/07/25 05:06:14;;;;;;;14.60;13.05;;;;;;;20.88;100.00;96057.84;5071556;28;20339;-77
2022/07/25 05:08:41;;;;;;;15.73;13.52;;;;;;;20.89;100.00;96053.97;5057439;28;20206;-77
2022/07/25 05:11:09;;;;;;;13.75;12.40;;;;;;;20.86;100.00;96048.28;5054003;28;20218;-77
2022/07/25 05:13:36;;;;;;;15.70;13.75;;;;;;;20.87;100.00;96052.66;5050686;28;20260;-77
2022/07/25 05:16:03;;;;;;;15.27;13.48;;;;;;;20.92;100.00;96053.38;5058051;28;20229;-77
2022/07/25 05:18:30;;;;;;;14.27;12.77;;;;;;;21.02;100.00;96063.34;5056170;28;20224;-77
2022/07/25 05:20:59;;;;;;;14.68;13.05;;;;;;;21.05;100.00;96066.31;5051652;28;20289;-77
2022/07/25 05:23:26;;;;;;;16.30;12.98;;;;;;;20.99;100.00;96059.28;5050639;28;20220;-77
2022/07/25 05:25:53;;;;;;;15.73;13.35;;;;;;;20.94;100.00;96062.09;5061119;28;20228;-77
2022/07/25 05:28:20;;;;;;;15.50;13.88;;;;;;;20.96;100.00;96059.88;5051011;28;20205;-78
2022/07/25 05:30:47;;;;;;;18.02;13.98;;;;;;;20.98;100.00;96059.59;5051302;28;20199;-78
2022/07/25 05:33:15;;;;;;;17.45;12.85;;;;;;;21.00;100.00;96058.16;5053050;28;20321;-78
2022/07/25 05:35:43;;;;;;;15.25;13.57;;;;;;;20.99;100.00;96059.28;5056752;28;20260;-82
2022/07/25 05:38:11;;;;;;;14.63;13.07;;;;;;;20.96;100.00;96062.63;5052235;28;20193;-82
2022/07/25 05:40:38;;;;;;;13.93;12.52;;;;;;;20.98;100.00;96065.88;5050007;28;20214;-82
2022/07/25 05:43:05;;;;;;;14.18;12.70;;;;;;;21.08;100.00;96062.16;5049963;28;20202;-82
2022/07/25 05:45:32;;;;;;;14.10;12.57;;;;;;;21.09;100.00;96067.34;5061100;28;20202;-82
2022/07/25 05:47:59;;;;;;;14.63;12.98;;;;;;;21.10;100.00;96073.59;5049673;28;20202;-82
2022/07/25 05:50:26;;;;;;;15.30;12.82;;;;;;;21.04;100.00;96055.63;5057655;28;20255;-82
2022/07/25 05:52:53;;;;;;;14.68;12.95;;;;;;;21.08;100.00;96056.66;5056397;28;20293;-82
2022/07/25 05:55:22;;;;;;;16.25;13.40;;;;;;;21.03;100.00;96054.81;5048805;28;20241;-83
2022/07/25 05:57:49;;;;;;;16.00;13.32;;;;;;;21.12;100.00;96058.47;5050209;28;20209;-83
2022/07/25 06:00:20;;;;;;;14.57;13.07;;;;;;;21.14;100.00;96064.47;5048401;28;20202;-83
2022/07/25 06:02:47;;;;;;;17.83;13.80;;;;;;;21.10;100.00;96055.22;5058776;28;20266;-85
2022/07/25 06:05:14;;;;;;;15.52;13.02;;;;;;;21.15;100.00;96068.84;5053222;28;20212;-82
2022/07/25 06:07:41;;;;;;;17.00;13.30;;;;;;;21.15;100.00;96059.81;5048910;28;20205;-84
2022/07/25 06:10:09;;;;;;;14.20;12.70;;;;;;;21.09;100.00;96063.78;5054534;28;20224;-83
2022/07/25 06:12:37;;;;;;;14.15;12.65;;;;;;;21.18;100.00;96066.66;5048202;28;20210;-85
2022/07/25 06:15:05;;;;;;;14.65;13.13;;;;;;;21.22;100.00;96062.97;5046531;28;20230;-83
2022/07/25 06:17:32;;;;;;;14.65;13.07;;;;;;;21.32;100.00;96070.22;5044516;28;20206;-85
2022/07/25 06:19:59;;;;;;;15.18;13.13;;;;;;;21.34;100.00;96067.97;5051079;28;20214;-84
2022/07/25 06:22:27;;;;;;;13.68;12.38;;;;;;;21.30;100.00;96073.25;5049269;28;20202;-83
2022/07/25 06:24:54;;;;;;;18.08;12.88;;;;;;;21.32;100.00;96071.03;5062720;28;21568;-86
2022/07/25 06:27:21;;;;;;;16.00;13.45;;;;;;;21.26;100.00;96068.69;5055464;28;20202;-84
2022/07/25 06:29:50;;;;;;;15.40;12.98;;;;;;;21.21;100.00;96061.34;5058692;28;20213;-82
2022/07/25 06:32:17;;;;;;;14.75;13.25;;;;;;;21.25;100.00;96056.09;5047849;28;20198;-86
2022/07/25 06:34:44;;;;;;;15.93;14.32;;;;;;;21.32;100.00;96056.47;5047168;28;20222;-85
2022/07/25 06:37:11;;;;;;;14.75;13.25;;;;;;;21.35;100.00;96058.63;5051164;28;20205;-84
2022/07/25 06:39:38;;;;;;;13.65;12.35;;;;;;;21.44;100.00;96059.50;5055427;28;20286;-83
2022/07/25 06:42:05;;;;;;;14.73;12.98;;;;;;;21.49;100.00;96060.25;5051459;28;20209;-85
2022/07/25 06:44:34;;;;;;;15.50;13.98;;;;;;;21.49;100.00;96056.69;5051882;28;20210;-84
2022/07/25 06:47:04;;;;;;;15.93;13.38;;;;;;;21.43;100.00;96049.66;5052635;28;20202;-83
2022/07/25 06:49:31;;;;;;;14.43;12.93;;;;;;;21.45;100.00;96053.72;5049524;28;20417;-85
2022/07/25 06:51:58;;;;;;;13.93;12.68;;;;;;;21.56;100.00;96054.31;5045537;28;20234;-83
2022/07/25 06:54:25;;;;;;;13.73;12.43;;;;;;;21.58;100.00;96037.53;5061818;28;20323;-85
2022/07/25 06:56:52;;;;;;;14.75;12.63;;;;;;;21.50;100.00;96033.59;5053708;28;20316;-83
2022/07/25 06:59:19;;;;;;;15.02;12.63;;;;;;;21.44;100.00;96034.78;5059057;28;20200;-86
2022/07/25 07:01:46;;;;;;;14.82;13.02;;;;;;;21.48;100.00;96039.38;5061977;28;20211;-85
2022/07/25 07:04:15;;;;;;;14.95;13.45;;;;;;;21.46;100.00;96035.31;5052771;28;20194;-84
2022/07/25 07:06:42;;;;;;;13.38;11.98;;;;;;;21.56;100.00;96037.84;5062811;28;20236;-85
2022/07/25 07:09:09;;;;;;;14.48;12.98;;;;;;;21.53;100.00;96036.50;5054381;28;20202;-85
2022/07/25 07:11:36;;;;;;;14.80;12.70;;;;;;;21.55;100.00;96033.47;5055464;28;20195;-78
2022/07/25 07:14:04;;;;;;;13.70;12.35;;;;;;;21.55;100.00;96029.91;5055663;28;20237;-78
2022/07/25 07:16:31;;;;;;;13.18;11.88;;;;;;;21.55;100.00;96032.66;5058365;28;20308;-79
2022/07/25 07:18:58;;;;;;;12.40;11.30;;;;;;;21.58;100.00;96021.06;5064648;28;20202;-78
2022/07/25 07:21:27;;;;;;;13.27;11.88;;;;;;;21.90;100.00;96024.44;5059458;28;20277;-78
2022/07/25 07:23:54;;;;;;;13.57;12.18;;;;;;;22.33;100.00;96013.00;5049455;28;20210;-78
2022/07/25 07:26:21;;;;;;;14.15;12.20;;;;;;;22.93;100.00;96013.38;5062745;28;20246;-78
2022/07/25 07:28:48;;;;;;;11.88;10.77;;;;;;;23.23;100.00;96016.41;5055724;28;20205;-79
2022/07/25 07:31:16;;;;;;;14.02;11.15;;;;;;;23.45;100.00;96007.25;5060856;28;20229;-79
2022/07/25 07:33:43;;;;;;;11.80;10.63;;;;;;;23.64;100.00;95999.53;5053842;28;20629;-78
2022/07/25 07:36:10;;;;;;;11.77;10.63;;;;;;;23.96;100.00;96010.09;5056983;28;20300;-79
2022/07/25 07:38:39;;;;;;;11.07;9.88;;;;;;;24.29;100.00;96004.13;5057239;28;20210;-79
2022/07/25 07:41:06;;;;;;;12.40;10.65;;;;;;;24.63;100.00;96011.53;5056349;28;20321;-79
2022/07/25 07:43:34;;;;;;;11.60;10.50;;;;;;;25.03;100.00;95998.28;5050562;28;20202;-78
2022/07/25 07:46:02;;;;;;;11.00;9.90;;;;;;;25.44;96.40;95995.66;5049858;28;20263;-79
2022/07/25 07:48:29;;;;;;;10.75;9.65;;;;;;;25.58;94.93;95996.22;5051292;28;20221;-79
2022/07/25 07:50:56;;;;;;;10.88;9.85;;;;;;;25.32;90.48;95995.56;5057507;28;20214;-79
2022/07/25 07:55:42;;;;;;;10.85;9.82;;;;;;;25.33;93.05;95994.44;5058534;28;20202;-79
2022/07/25 07:56:12;;;;;;;12.13;10.30;;;;;;;25.54;93.04;95995.25;5061809;28;20222;-79
2022/07/25 07:58:39;;;;;;;10.82;9.73;;;;;;;25.82;91.87;95983.72;5049433;28;20212;-79
2022/07/25 08:01:06;;;;;;;11.25;10.20;;;;;;;26.30;89.97;95992.31;5061634;28;20207;-79
2022/07/25 08:03:33;;;;;;;11.65;10.45;;;;;;;26.69;85.47;95995.69;5056139;28;20205;-79
2022/07/25 08:06:01;;;;;;;11.43;10.38;;;;;;;26.84;82.75;95986.72;5058705;28;20217;-79
2022/07/25 08:08:28;;;;;;;10.88;9.77;;;;;;;27.15;82.61;95988.19;5054568;28;20205;-79
2022/07/25 08:10:55;;;;;;;11.32;10.23;;;;;;;27.34;78.33;95989.25;5054142;28;20213;-79
2022/07/25 08:13:25;;;;;;;11.77;10.68;;;;;;;27.07;78.38;95974.09;5061166;28;20212;-79
2022/07/25 08:15:58;;;;;;;15.88;11.23;;;;;;;26.94;79.97;95982.75;5056074;28;20246;-79
2022/07/25 08:18:28;;;;;;;11.70;10.55;;;;;;;26.97;80.88;95976.50;5057272;28;20206;-78
2022/07/25 08:20:56;;;;;;;11.77;10.68;;;;;;;27.19;80.69;95975.25;5055291;28;20202;-79
2022/07/25 08:23:24;;;;;;;12.02;10.63;;;;;;;27.46;80.51;95969.84;5076122;28;20232;-79
2022/07/25 08:25:51;;;;;;;12.48;11.27;;;;;;;27.78;78.34;95972.81;5049400;28;20235;-79
2022/07/25 08:28:18;;;;;;;12.85;11.55;;;;;;;28.10;73.70;95962.69;5053441;28;20201;-79
2022/07/25 08:30:47;;;;;;;11.65;10.52;;;;;;;28.15;75.89;95968.00;5053806;28;20205;-79
2022/07/25 08:33:15;;;;;;;12.10;10.95;;;;;;;28.29;75.29;95962.06;5053065;28;20206;-79
2022/07/25 08:35:46;;;;;;;12.77;11.57;;;;;;;28.48;71.14;95956.66;5055131;28;20274;-79
2022/07/25 08:38:13;;;;;;;11.90;10.88;;;;;;;28.70;71.17;95955.25;5059844;28;20209;-79
2022/07/25 08:40:40;;;;;;;11.60;10.43;;;;;;;28.99;72.59;95954.91;5059812;28;20209;-79
2022/07/25 08:43:12;;;;;;;12.32;11.13;;;;;;;29.24;68.19;95959.09;5051182;28;20216;-79
2022/07/25 08:45:44;;;;;;;11.68;10.52;;;;;;;29.48;69.94;95951.75;5050835;28;20206;-79
2022/07/25 08:48:13;;;;;;;13.30;11.90;;;;;;;29.67;66.04;95960.97;5055272;28;20217;-79
2022/07/25 08:50:40;;;;;;;12.98;11.88;;;;;;;29.73;64.95;95958.69;5049374;28;20209;-79
2022/07/25 08:53:08;;;;;;;12.73;11.57;;;;;;;29.78;64.14;95958.41;5052142;28;20198;-79
2022/07/25 08:55:36;;;;;;;13.38;11.82;;;;;;;29.86;63.61;95957.41;5049362;28;20304;-79
2022/07/25 08:58:03;;;;;;;13.18;11.40;;;;;;;29.93;62.57;95957.56;5059151;28;20217;-79
2022/07/25 09:00:30;;;;;;;12.70;11.52;;;;;;;29.97;62.98;95944.56;5053992;28;20217;-79
2022/07/25 09:03:01;;;;;;;13.50;12.25;;;;;;;30.05;64.27;95946.31;5053715;28;20204;-79
2022/07/25 09:05:32;;;;;;;14.30;12.85;;;;;;;29.98;67.01;95954.53;5064966;28;20210;-79
2022/07/25 09:08:07;;;;;;;14.82;12.82;;;;;;;29.76;70.29;95951.63;5059835;28;20251;-79
2022/07/25 09:10:35;;;;;;;12.40;11.30;;;;;;;29.93;71.72;95963.16;5060768;28;20239;-79
2022/07/25 09:13:06;;;;;;;14.52;12.30;;;;;;;29.85;65.20;95958.59;5059042;28;20202;-79
2022/07/25 09:15:36;;;;;;;13.23;11.95;;;;;;;29.96;64.11;95951.28;5060251;28;20351;-79
2022/07/25 09:18:05;;;;;;;13.35;11.75;;;;;;;29.94;64.02;95959.19;5056108;28;20205;-79
2022/07/25 09:20:42;;;;;;;12.95;11.55;;;;;;;30.00;61.77;95951.38;5062283;28;20205;-79
2022/07/25 09:23:10;;;;;;;12.95;11.20;;;;;;;30.08;60.73;95956.75;5058276;28;20197;-79
2022/07/25 09:25:37;;;;;;;12.10;10.82;;;;;;;30.20;60.69;95949.44;5055249;28;20204;-79
2022/07/25 09:28:15;;;;;;;12.68;11.25;;;;;;;30.19;62.28;95956.16;5056313;28;20236;-79
2022/07/25 09:30:54;;;;;;;13.30;12.10;;;;;;;30.12;64.10;95959.59;5055149;28;20210;-79
2022/07/25 09:33:23;;;;;;;13.25;11.95;;;;;;;30.03;65.38;95962.56;5054340;28;20225;-79
2022/07/25 09:35:52;;;;;;;12.88;11.68;;;;;;;30.22;65.70;95963.78;5050899;28;20218;-79
2022/07/25 09:38:20;;;;;;;12.60;11.32;;;;;;;30.32;61.19;95958.44;5055769;28;20309;-79
2022/07/25 09:41:00;;;;;;;11.98;10.90;;;;;;;30.38;59.62;95962.53;5062285;28;20325;-79
2022/07/25 09:43:37;;;;;;;13.30;12.10;;;;;;;30.48;60.24;95961.13;5063265;28;20201;-79
2022/07/25 09:46:05;;;;;;;13.35;12.15;;;;;;;30.63;58.85;95965.03;5056302;28;20239;-79
2022/07/25 09:48:32;;;;;;;12.68;11.13;;;;;;;30.69;58.35;95955.22;5051192;28;20205;-79
2022/07/25 09:51:01;;;;;;;13.02;11.68;;;;;;;30.71;58.04;95953.63;5049243;28;20209;-79
2022/07/25 09:53:29;;;;;;;12.55;11.27;;;;;;;30.75;58.22;95954.53;5048630;28;20202;-79
2022/07/25 09:55:56;;;;;;;12.57;11.18;;;;;;;30.70;58.28;95957.63;5047311;28;20256;-79
2022/07/25 09:58:23;;;;;;;12.80;11.60;;;;;;;30.69;58.16;95956.00;5058224;28;20267;-79
2022/07/25 10:00:54;;;;;;;12.55;11.45;;;;;;;30.82;57.07;95949.09;5049431;28;20212;-79
2022/07/25 10:03:29;;;;;;;13.10;11.60;;;;;;;30.95;56.49;95957.28;5050398;28;20565;-80
2022/07/25 10:06:11;;;;;;;12.50;11.23;;;;;;;31.00;55.65;95948.59;5051149;28;20229;-79
2022/07/25 10:08:40;;;;;;;11.48;10.52;;;;;;;31.20;54.89;95962.16;5049138;28;20206;-79
2022/07/25 10:11:18;;;;;;;11.98;10.68;;;;;;;31.14;52.98;95949.66;5048787;28;20201;-80
2022/07/25 10:13:46;;;;;;;11.73;10.65;;;;;;;30.95;53.35;95946.13;5049380;28;20289;-80
2022/07/25 10:16:18;;;;;;;11.45;10.43;;;;;;;30.78;55.05;95948.22;5058512;28;20302;-80
2022/07/25 10:18:51;;;;;;;11.70;10.55;;;;;;;30.70;55.43;95946.47;5051100;28;20303;-79
2022/07/25 10:21:21;;;;;;;11.60;10.50;;;;;;;30.83;55.05;95944.31;5048717;28;20210;-80
2022/07/25 10:24:03;;;;;;;11.40;10.30;;;;;;;31.02;52.47;95941.47;5050264;28;20219;-80
2022/07/25 10:26:32;;;;;;;11.93;10.73;;;;;;;31.28;53.49;95932.38;5054878;28;20279;-80
2022/07/25 10:29:00;;;;;;;11.75;10.52;;;;;;;31.27;53.08;95938.34;5057136;28;20264;-80
2022/07/25 10:31:36;;;;;;;12.65;11.32;;;;;;;31.11;53.80;95930.09;5051908;28;20206;-79
2022/07/25 10:34:06;;;;;;;12.13;11.02;;;;;;;30.94;53.56;95939.75;5053189;28;20206;-80
2022/07/25 10:36:46;;;;;;;12.15;10.85;;;;;;;31.07;54.51;95926.44;5060536;28;20201;-80
2022/07/25 10:39:15;;;;;;;11.50;10.38;;;;;;;31.37;52.25;95932.94;5053182;28;20213;-79
2022/07/25 10:41:44;;;;;;;12.18;10.82;;;;;;;31.51;51.90;95938.72;5056175;28;20205;-80
2022/07/25 10:44:13;;;;;;;12.05;10.85;;;;;;;31.74;49.89;95929.50;5051222;28;20209;-80
2022/07/25 10:46:43;;;;;;;10.75;9.75;;;;;;;32.04;51.19;95921.16;5056266;28;20206;-80
2022/07/25 10:49:19;;;;;;;11.70;10.50;;;;;;;32.24;49.07;95917.06;5056440;28;20221;-80
2022/07/25 10:51:56;;;;;;;11.43;10.32;;;;;;;32.31;48.98;95917.16;5049457;28;20297;-80
2022/07/25 10:54:23;;;;;;;11.77;10.68;;;;;;;32.49;48.27;95920.16;5050180;28;20209;-79
2022/07/25 10:56:53;;;;;;;11.07;10.02;;;;;;;32.42;48.35;95922.84;5047753;28;20222;-80
2022/07/25 10:59:28;;;;;;;11.40;10.20;;;;;;;32.26;48.12;95925.84;5057946;28;20252;-81
2022/07/25 11:01:56;;;;;;;10.30;9.27;;;;;;;32.35;48.07;95917.19;5047550;28;20236;-81
2022/07/25 11:04:23;;;;;;;13.82;10.13;;;;;;;32.48;47.38;95910.16;5052122;28;20202;-81
2022/07/25 11:06:51;;;;;;;10.85;9.95;;;;;;;32.56;47.40;95917.44;5061039;28;20213;-82
2022/07/25 11:09:20;;;;;;;11.35;10.25;;;;;;;32.40;47.32;95919.66;5054565;28;20210;-82
2022/07/25 11:11:50;;;;;;;11.23;10.07;;;;;;;32.17;48.85;95906.59;5051457;28;20265;-81
2022/07/25 11:14:20;;;;;;;10.38;9.45;;;;;;;32.24;48.43;95911.50;5049242;28;20249;-81
2022/07/25 11:16:50;;;;;;;10.30;9.38;;;;;;;32.60;47.99;95905.09;5057097;28;20217;-80